Time;durP1;ratioP1;P1;durP2;ratioP2;P2;SDS_P1;SDS_P2;PMS_P1;PMS_P2;Temp;Humidity;BMP_temperature;BMP_pressure;BME280_temperature;BME280_humidity;BME280_pressure;Samples;Min_cycle;Max_cycle;Signal;HPM_P1;HPM_P2
2022/04/30 00:01:03;;;;;;;14.52;11.15;;;14.20;48.50;;;;;;5032303;28;20451;-78
2022/04/30 00:03:30;;;;;;;16.40;11.50;;;14.20;48.70;;;;;;5019226;28;20238;-78
2022/04/30 00:05:57;;;;;;;12.90;9.70;;;14.20;49.00;;;;;;5022382;28;20490;-77
2022/04/30 00:08:26;;;;;;;18.93;11.40;;;14.10;49.10;;;;;;5038249;28;20477;-79
2022/04/30 00:10:53;;;;;;;14.13;10.30;;;14.20;49.80;;;;;;5036769;28;20451;-78
2022/04/30 00:13:20;;;;;;;18.87;11.30;;;14.20;49.00;;;;;;5018668;28;20425;-80
2022/04/30 00:15:47;;;;;;;11.30;10.10;;;14.00;49.10;;;;;;5022825;28;20429;-78
2022/04/30 00:18:14;;;;;;;12.83;10.70;;;13.90;49.90;;;;;;5038323;28;20321;-78
2022/04/30 00:20:45;;;;;;;14.23;10.70;;;13.80;51.00;;;;;;5020667;28;20462;-78
2022/04/30 00:23:20;;;;;;;16.00;11.75;;;13.70;52.70;;;;;;5017316;28;20203;-79
2022/04/30 00:25:50;;;;;;;14.30;11.53;;;13.50;53.00;;;;;;5033587;28;20210;-77
2022/04/30 00:28:18;;;;;;;17.50;12.88;;;13.40;54.60;;;;;;5031575;28;20496;-77
2022/04/30 00:30:45;;;;;;;15.17;11.20;;;13.40;55.70;;;;;;5035765;28;20233;-77
2022/04/30 00:33:12;;;;;;;15.85;11.75;;;13.30;56.40;;;;;;5034603;28;20453;-78
2022/04/30 00:35:39;;;;;;;12.48;11.18;;;13.30;57.20;;;;;;5014379;28;20204;-77
2022/04/30 00:38:07;;;;;;;14.00;12.37;;;13.30;57.90;;;;;;5019530;28;20227;-77
2022/04/30 00:40:34;;;;;;;17.98;12.68;;;13.20;58.30;;;;;;5038965;28;20457;-77
2022/04/30 00:43:02;;;;;;;16.00;12.00;;;13.20;58.70;;;;;;5029497;28;20210;-77
2022/04/30 00:45:29;;;;;;;19.00;12.68;;;13.20;59.10;;;;;;5029751;28;20210;-77
2022/04/30 00:47:56;;;;;;;16.42;12.95;;;13.10;60.00;;;;;;5029646;28;20235;-77
2022/04/30 00:50:26;;;;;;;17.20;12.95;;;13.00;60.70;;;;;;5021763;28;20222;-77
2022/04/30 00:52:56;;;;;;;19.60;13.90;;;13.00;61.40;;;;;;5028976;28;20623;-77
2022/04/30 00:55:26;;;;;;;16.95;13.60;;;13.00;61.40;;;;;;5015190;28;20219;-77
2022/04/30 00:57:58;;;;;;;18.42;14.48;;;12.90;62.20;;;;;;5018974;28;20218;-78
2022/04/30 01:00:29;;;;;;;27.27;15.05;;;12.80;62.90;;;;;;5036475;28;20206;-77
2022/04/30 01:02:56;;;;;;;24.35;15.10;;;12.80;63.70;;;;;;5036816;28;20228;-77
2022/04/30 01:05:23;;;;;;;18.17;15.07;;;12.80;64.10;;;;;;5029058;28;20639;-77
2022/04/30 01:07:49;;;;;;;20.65;15.50;;;12.70;64.40;;;;;;5015992;28;20234;-77
2022/04/30 01:10:16;;;;;;;22.85;16.23;;;12.70;65.00;;;;;;5016326;28;20656;-77
2022/04/30 01:12:43;;;;;;;20.92;15.88;;;12.60;65.50;;;;;;5015280;28;20291;-76
2022/04/30 01:15:12;;;;;;;23.65;15.98;;;12.60;66.20;;;;;;5015322;28;20299;-77
2022/04/30 01:17:42;;;;;;;27.98;16.75;;;12.60;66.90;;;;;;5017443;28;20220;-77
2022/04/30 01:20:11;;;;;;;25.17;15.85;;;12.50;67.80;;;;;;5015248;28;20222;-77
2022/04/30 01:22:54;;;;;;;24.33;16.98;;;12.50;68.40;;;;;;5017316;28;20203;-77
2022/04/30 01:25:22;;;;;;;23.42;15.93;;;12.50;67.70;;;;;;5017721;28;20220;-75
2022/04/30 01:27:52;;;;;;;26.05;16.05;;;12.50;67.90;;;;;;5018422;28;20259;-76
2022/04/30 01:30:19;;;;;;;28.48;17.08;;;12.40;68.30;;;;;;5015861;28;20263;-76
2022/04/30 01:38:16;;;;;;;25.80;17.52;;;12.40;69.80;;;;;;5039150;28;20238;-76
2022/04/30 01:40:43;;;;;;;23.90;17.20;;;12.30;69.70;;;;;;5039192;28;20200;-76
2022/04/30 01:43:10;;;;;;;25.27;16.80;;;12.30;69.70;;;;;;5044230;28;20227;-77
2022/04/30 01:45:37;;;;;;;26.90;17.25;;;12.30;69.70;;;;;;5035400;28;20227;-77
2022/04/30 01:48:06;;;;;;;25.83;17.92;;;12.30;69.70;;;;;;5038399;28;20220;-77
2022/04/30 01:50:34;;;;;;;25.67;17.83;;;12.30;70.60;;;;;;5031870;28;20230;-76
2022/04/30 01:53:01;;;;;;;24.10;18.40;;;12.30;71.80;;;;;;5016287;28;20675;-76
2022/04/30 01:55:30;;;;;;;32.75;18.83;;;12.20;73.50;;;;;;5025058;28;20231;-78
2022/04/30 01:57:57;;;;;;;26.13;18.35;;;12.10;73.90;;;;;;5027425;28;20234;-77
2022/04/30 02:00:26;;;;;;;31.45;19.85;;;12.10;74.70;;;;;;5021778;28;20208;-78
2022/04/30 02:02:55;;;;;;;30.15;19.02;;;12.00;77.30;;;;;;5049498;28;20239;-77
2022/04/30 02:05:23;;;;;;;31.77;18.55;;;11.90;78.30;;;;;;5054393;28;20238;-76
2022/04/30 02:07:52;;;;;;;28.10;18.15;;;11.90;79.80;;;;;;5036856;28;20255;-75
2022/04/30 02:10:21;;;;;;;27.15;18.90;;;11.90;82.20;;;;;;5035822;28;20215;-77
2022/04/30 02:12:51;;;;;;;26.00;19.10;;;11.90;82.20;;;;;;5049759;28;20238;-77
2022/04/30 02:15:19;;;;;;;31.13;19.70;;;11.90;82.20;;;;;;5051380;28;20245;-76
2022/04/30 02:17:47;;;;;;;30.90;19.58;;;11.90;82.20;;;;;;5031353;28;20318;-76
2022/04/30 02:23:08;;;;;;;28.45;20.70;;;11.90;84.80;;;;;;5043100;28;20207;-77
2022/04/30 02:25:35;;;;;;;30.85;19.20;;;11.90;85.10;;;;;;5048003;28;20211;-77
2022/04/30 02:28:05;;;;;;;29.27;20.65;;;11.90;85.40;;;;;;5029620;28;20287;-76
2022/04/30 02:30:35;;;;;;;27.38;19.70;;;11.90;85.40;;;;;;5031425;28;20212;-76
2022/04/30 02:33:06;;;;;;;29.88;20.08;;;11.90;86.80;;;;;;5049430;28;20207;-76
2022/04/30 02:35:34;;;;;;;27.02;20.48;;;11.90;87.40;;;;;;5029785;28;20267;-77
2022/04/30 02:38:03;;;;;;;32.22;20.92;;;11.90;86.80;;;;;;5017723;28;20599;-77
2022/04/30 02:40:32;;;;;;;28.15;19.15;;;11.80;86.40;;;;;;5031476;28;20214;-77
2022/04/30 02:43:06;;;;;;;30.02;20.00;;;11.80;86.50;;;;;;5038248;28;20572;-78
2022/04/30 02:45:33;;;;;;;28.83;19.85;;;11.80;86.30;;;;;;5033447;28;20213;-77
2022/04/30 02:48:00;;;;;;;28.17;19.92;;;11.70;86.70;;;;;;5037928;28;20301;-77
2022/04/30 02:50:27;;;;;;;29.38;20.45;;;11.70;88.60;;;;;;5036816;28;20264;-75
2022/04/30 02:52:55;;;;;;;29.85;20.30;;;11.70;88.00;;;;;;5035416;28;20239;-75
2022/04/30 02:55:23;;;;;;;29.55;21.42;;;11.70;88.10;;;;;;5024080;28;20570;-76
2022/04/30 03:00:39;;;;;;;28.85;20.73;;;11.60;89.90;;;;;;5027156;28;20206;-76
2022/04/30 03:03:06;;;;;;;28.98;21.08;;;11.60;90.10;;;;;;5034912;28;20225;-76
2022/04/30 03:05:33;;;;;;;39.78;21.50;;;11.60;90.10;;;;;;5015351;28;20212;-76
2022/04/30 03:08:05;;;;;;;30.42;21.42;;;11.60;90.10;;;;;;5015019;28;20254;-76
2022/04/30 03:10:31;;;;;;;31.73;20.40;;;11.60;90.00;;;;;;5015176;28;20210;-77
2022/04/30 03:12:58;;;;;;;29.77;21.48;;;11.50;90.00;;;;;;5015666;28;20203;-77
2022/04/30 03:15:29;;;;;;;29.92;22.40;;;11.40;90.00;;;;;;5015182;28;20204;-76
2022/04/30 03:23:27;;;;;;;32.08;21.83;;;11.30;91.80;;;;;;5034600;28;20357;-78
2022/04/30 03:25:54;;;;;;;32.53;21.20;;;11.30;92.10;;;;;;5035388;28;20207;-78
2022/04/30 03:28:21;;;;;;;30.98;22.15;;;11.30;91.80;;;;;;5024318;28;20220;-78
2022/04/30 03:30:48;;;;;;;30.20;21.48;;;11.30;92.00;;;;;;5016899;28;20211;-78
2022/04/30 03:33:16;;;;;;;28.52;20.77;;;11.30;91.90;;;;;;5024879;28;20210;-78
2022/04/30 03:35:44;;;;;;;32.40;22.00;;;11.30;91.80;;;;;;5026533;28;20226;-78
2022/04/30 03:38:11;;;;;;;34.55;22.08;;;11.30;92.10;;;;;;5015275;28;20228;-77
2022/04/30 03:40:39;;;;;;;36.80;22.30;;;11.20;92.70;;;;;;5015756;28;20278;-77
2022/04/30 03:43:06;;;;;;;35.45;22.02;;;11.20;93.60;;;;;;5015630;28;20279;-77
2022/04/30 03:45:33;;;;;;;37.65;24.38;;;11.20;93.80;;;;;;5014934;28;20204;-77
2022/04/30 03:48:00;;;;;;;37.78;24.00;;;11.20;93.80;;;;;;5013915;28;20607;-77
2022/04/30 03:50:28;;;;;;;31.83;21.90;;;11.10;94.20;;;;;;5017494;28;20227;-77
2022/04/30 03:52:55;;;;;;;35.97;23.38;;;11.10;94.50;;;;;;5034315;28;20562;-77
2022/04/30 03:55:22;;;;;;;31.38;23.20;;;11.10;95.10;;;;;;5031882;28;20703;-76
2022/04/30 03:57:49;;;;;;;37.35;24.05;;;11.10;94.70;;;;;;5014031;28;20244;-77
2022/04/30 04:00:17;;;;;;;33.45;24.08;;;11.10;95.30;;;;;;5014284;28;20289;-76
2022/04/30 04:02:44;;;;;;;33.75;23.65;;;11.10;96.40;;;;;;5016354;28;20568;-77
2022/04/30 04:05:12;;;;;;;34.35;24.55;;;11.20;96.20;;;;;;5024933;28;20207;-75
2022/04/30 04:07:41;;;;;;;34.35;22.85;;;11.20;95.90;;;;;;5035999;28;20281;-77
2022/04/30 04:10:09;;;;;;;40.25;23.63;;;11.10;95.40;;;;;;5028072;28;20264;-76
2022/04/30 04:12:36;;;;;;;32.53;22.85;;;11.20;95.90;;;;;;5015085;28;20294;-77
2022/04/30 04:17:48;;;;;;;34.42;23.58;;;11.00;96.30;;;;;;5015109;28;20346;-76
2022/04/30 04:20:16;;;;;;;33.17;24.58;;;10.90;97.20;;;;;;5014675;28;20318;-77
2022/04/30 04:22:44;;;;;;;33.58;24.35;;;10.90;98.20;;;;;;5014978;28;20254;-77
2022/04/30 04:27:57;;;;;;;40.08;27.02;;;11.00;99.10;;;;;;5015336;28;20231;-77
2022/04/30 04:30:26;;;;;;;44.28;26.48;;;11.00;99.20;;;;;;5029903;28;20195;-77
2022/04/30 04:32:53;;;;;;;38.53;24.20;;;11.00;99.90;;;;;;5035403;28;20302;-77
2022/04/30 04:35:20;;;;;;;43.00;26.80;;;11.00;99.90;;;;;;5038683;28;20270;-78
2022/04/30 04:37:49;;;;;;;36.30;25.35;;;11.00;99.90;;;;;;5040248;28;20258;-78
2022/04/30 04:40:17;;;;;;;30.02;24.13;;;11.00;99.90;;;;;;5026607;28;20752;-78
2022/04/30 04:42:45;;;;;;;34.05;24.48;;;11.00;99.90;;;;;;5018754;28;20208;-77
2022/04/30 04:45:13;;;;;;;37.85;26.63;;;10.90;99.90;;;;;;5017100;28;20212;-78
2022/04/30 04:47:42;;;;;;;40.47;26.00;;;11.00;99.90;;;;;;5015535;28;20235;-77
2022/04/30 04:50:12;;;;;;;41.35;26.85;;;11.00;99.90;;;;;;5025994;28;20302;-77
2022/04/30 04:52:38;;;;;;;38.28;26.50;;;10.90;99.90;;;;;;5036172;28;20258;-77
2022/04/30 04:55:08;;;;;;;41.75;28.60;;;10.80;99.90;;;;;;5037142;28;20210;-76
2022/04/30 04:57:35;;;;;;;46.67;29.15;;;10.70;99.90;;;;;;5040455;28;20231;-77
2022/04/30 05:00:02;;;;;;;44.90;30.00;;;10.70;99.90;;;;;;5040641;28;20254;-78
2022/04/30 05:02:29;;;;;;;45.13;29.58;;;10.70;99.90;;;;;;5036676;28;20208;-77
2022/04/30 05:04:56;;;;;;;43.60;29.60;;;10.70;99.90;;;;;;5014205;28;20208;-79
2022/04/30 05:07:24;;;;;;;38.28;28.10;;;10.70;99.90;;;;;;5019790;28;20226;-78
2022/04/30 05:09:51;;;;;;;42.75;27.00;;;10.70;99.90;;;;;;5046040;28;20203;-79
2022/04/30 05:12:19;;;;;;;39.72;27.63;;;10.80;99.90;;;;;;5049355;28;20208;-81
2022/04/30 05:14:48;;;;;;;43.70;29.23;;;10.80;99.90;;;;;;5034673;28;20234;-81
2022/04/30 05:17:15;;;;;;;44.70;28.15;;;10.80;99.90;;;;;;5043439;28;20273;-80
2022/04/30 05:19:43;;;;;;;48.20;28.25;;;10.80;99.90;;;;;;5050707;28;20269;-78
2022/04/30 05:22:11;;;;;;;44.78;27.20;;;10.70;99.90;;;;;;5032485;28;20285;-77
2022/04/30 05:24:38;;;;;;;40.70;26.88;;;10.70;99.90;;;;;;5032389;28;20301;-78
2022/04/30 05:27:08;;;;;;;39.28;27.80;;;10.80;99.90;;;;;;5032222;28;20246;-77
2022/04/30 05:29:36;;;;;;;38.33;27.20;;;10.80;99.90;;;;;;5032501;28;20203;-77
2022/04/30 05:32:04;;;;;;;41.78;28.88;;;10.80;99.90;;;;;;5027544;28;20632;-78
2022/04/30 05:34:31;;;;;;;39.30;27.30;;;10.80;99.90;;;;;;5015918;28;20218;-77
2022/04/30 05:36:58;;;;;;;40.85;26.60;;;10.80;99.90;;;;;;5033996;28;20227;-77
2022/04/30 05:39:26;;;;;;;36.42;26.17;;;10.90;99.90;;;;;;5032679;28;20227;-77
2022/04/30 05:41:53;;;;;;;37.13;26.25;;;10.90;99.90;;;;;;5015716;28;20294;-77
2022/04/30 05:44:19;;;;;;;35.00;26.13;;;10.90;99.90;;;;;;5017871;28;20426;-76
2022/04/30 05:46:48;;;;;;;39.47;25.65;;;11.00;99.90;;;;;;5018710;28;20206;-78
2022/04/30 05:49:15;;;;;;;38.45;25.15;;;11.00;99.90;;;;;;5018820;28;20215;-77
2022/04/30 05:51:42;;;;;;;35.38;24.95;;;11.00;99.90;;;;;;5018286;28;20231;-77
2022/04/30 05:54:09;;;;;;;36.97;25.92;;;11.00;99.90;;;;;;5017983;28;20627;-77
2022/04/30 05:56:36;;;;;;;35.70;25.48;;;11.00;99.90;;;;;;5016733;28;20294;-77
2022/04/30 05:59:03;;;;;;;44.78;26.20;;;11.00;99.90;;;;;;5017297;28;20203;-76
2022/04/30 06:01:29;;;;;;;37.30;26.30;;;11.10;99.90;;;;;;5017971;28;20243;-77
2022/04/30 06:03:58;;;;;;;35.35;26.13;;;11.10;99.90;;;;;;5033512;28;20217;-76
2022/04/30 06:06:24;;;;;;;37.28;26.08;;;11.20;99.90;;;;;;5037041;28;20217;-76
2022/04/30 06:08:51;;;;;;;31.15;23.55;;;11.20;99.90;;;;;;5020999;28;20224;-76
2022/04/30 06:11:18;;;;;;;33.08;24.35;;;11.10;99.90;;;;;;5025081;28;20225;-76
2022/04/30 06:13:45;;;;;;;31.48;23.90;;;11.20;99.90;;;;;;5036369;28;20218;-77
2022/04/30 06:16:12;;;;;;;29.65;21.67;;;11.20;99.90;;;;;;5028634;28;20473;-77
2022/04/30 06:18:39;;;;;;;37.65;23.90;;;11.20;99.90;;;;;;5016275;28;20228;-78
2022/04/30 06:21:07;;;;;;;36.20;24.27;;;11.20;99.90;;;;;;5022697;28;20223;-77
2022/04/30 06:23:34;;;;;;;33.45;25.20;;;11.20;99.90;;;;;;5036904;28;20284;-77
2022/04/30 06:26:01;;;;;;;33.40;25.30;;;11.10;99.90;;;;;;5037433;28;20246;-76
2022/04/30 06:28:28;;;;;;;34.10;22.95;;;11.20;99.90;;;;;;5037268;28;20251;-77
2022/04/30 06:30:55;;;;;;;37.95;24.25;;;11.10;99.90;;;;;;5039075;28;20225;-76
2022/04/30 06:33:21;;;;;;;33.75;24.13;;;11.00;99.90;;;;;;5037669;28;20213;-76
2022/04/30 06:35:48;;;;;;;31.88;23.20;;;11.00;99.90;;;;;;5022481;28;20287;-76
2022/04/30 06:38:16;;;;;;;29.10;22.80;;;11.00;99.90;;;;;;5020605;28;20231;-75
2022/04/30 06:40:43;;;;;;;33.65;22.98;;;10.90;99.90;;;;;;5039076;28;20231;-77
2022/04/30 06:43:10;;;;;;;36.67;25.30;;;10.80;99.90;;;;;;5039997;28;20207;-77
2022/04/30 06:45:37;;;;;;;39.72;25.88;;;10.80;99.90;;;;;;5040254;28;20231;-76
2022/04/30 06:48:04;;;;;;;35.60;24.08;;;10.80;99.90;;;;;;5028155;28;20314;-77
2022/04/30 06:50:31;;;;;;;37.38;25.65;;;10.80;99.90;;;;;;5037670;28;20659;-77
2022/04/30 06:58:40;;;;;;;34.83;23.40;;;10.90;99.90;;;;;;5028012;28;20234;-78
2022/04/30 07:04:04;;;;;;;34.42;24.23;;;10.80;99.90;;;;;;5008526;28;20196;-76
2022/04/30 07:06:31;;;;;;;34.53;23.92;;;10.80;99.90;;;;;;5047218;28;20275;-77
2022/04/30 07:08:58;;;;;;;38.72;25.40;;;10.80;99.90;;;;;;5040832;28;20290;-78
2022/04/30 07:11:26;;;;;;;30.45;22.00;;;10.80;99.90;;;;;;5019937;28;20235;-78
2022/04/30 07:13:54;;;;;;;33.33;23.63;;;10.90;99.90;;;;;;5023543;28;20204;-79
2022/04/30 07:16:21;;;;;;;30.88;23.75;;;10.80;99.90;;;;;;5024179;28;20620;-78
2022/04/30 07:18:48;;;;;;;32.53;23.83;;;10.90;99.90;;;;;;5034560;28;20566;-78
2022/04/30 07:21:15;;;;;;;35.22;25.05;;;10.90;99.90;;;;;;5043339;28;20227;-78
2022/04/30 07:23:42;;;;;;;29.55;21.77;;;10.90;99.90;;;;;;5052138;28;20203;-78
2022/04/30 07:26:09;;;;;;;30.00;22.80;;;10.90;99.90;;;;;;5058678;28;20195;-79
2022/04/30 07:28:37;;;;;;;33.45;24.13;;;10.90;99.90;;;;;;5058012;28;20233;-80
2022/04/30 07:31:05;;;;;;;32.58;23.45;;;10.90;99.90;;;;;;5057913;28;20211;-78
2022/04/30 07:33:32;;;;;;;40.25;25.13;;;11.00;99.90;;;;;;5040001;28;20211;-79
2022/04/30 07:35:59;;;;;;;34.03;24.95;;;11.00;99.90;;;;;;5036392;28;20203;-78
2022/04/30 07:38:26;;;;;;;33.00;24.02;;;11.00;99.90;;;;;;5034938;28;20245;-78
2022/04/30 07:40:53;;;;;;;32.08;23.70;;;11.00;99.90;;;;;;5036214;28;20215;-76
2022/04/30 07:43:20;;;;;;;34.22;24.63;;;11.10;99.90;;;;;;5057874;23;20230;-77
2022/04/30 07:45:49;;;;;;;35.17;23.60;;;11.10;99.90;;;;;;5036160;28;20272;-78
2022/04/30 07:48:16;;;;;;;32.25;23.92;;;11.10;99.90;;;;;;5040279;28;20207;-77
2022/04/30 07:50:44;;;;;;;35.25;24.48;;;11.20;99.90;;;;;;5035810;28;20213;-76
2022/04/30 07:53:13;;;;;;;32.28;24.27;;;11.20;99.90;;;;;;5037106;28;20235;-77
2022/04/30 07:55:41;;;;;;;32.97;26.20;;;11.10;99.90;;;;;;5016360;28;20204;-78
2022/04/30 07:58:08;;;;;;;37.72;26.27;;;11.20;99.90;;;;;;5016484;28;20207;-77
2022/04/30 08:00:35;;;;;;;34.92;25.33;;;11.10;99.90;;;;;;5015120;28;20695;-76
2022/04/30 08:03:04;;;;;;;29.85;23.52;;;11.20;99.90;;;;;;4996697;28;20599;-81
2022/04/30 08:05:31;;;;;;;30.92;23.67;;;11.30;99.90;;;;;;5021583;28;20210;-78
2022/04/30 08:07:58;;;;;;;27.55;23.67;;;11.30;99.90;;;;;;5021906;28;20672;-78
2022/04/30 08:10:25;;;;;;;30.30;22.67;;;11.40;99.90;;;;;;5021477;28;20211;-78
2022/04/30 08:12:54;;;;;;;29.83;23.50;;;11.30;99.00;;;;;;5025494;28;20216;-78
2022/04/30 08:15:22;;;;;;;35.83;25.75;;;11.30;99.00;;;;;;5028828;28;20212;-77
2022/04/30 08:17:48;;;;;;;29.95;22.63;;;11.30;99.30;;;;;;5023227;28;20219;-76
2022/04/30 08:20:17;;;;;;;29.42;23.67;;;11.40;99.90;;;;;;5019422;28;20717;-78
2022/04/30 08:22:44;;;;;;;32.30;24.25;;;11.50;99.90;;;;;;5019885;28;20249;-77
2022/04/30 08:25:11;;;;;;;31.13;23.98;;;11.60;99.90;;;;;;5020630;28;20649;-78
2022/04/30 08:27:38;;;;;;;36.88;25.17;;;11.60;99.90;;;;;;5024395;28;20296;-77
2022/04/30 08:30:06;;;;;;;31.10;25.60;;;11.40;99.50;;;;;;5019770;28;20211;-79
2022/04/30 08:32:33;;;;;;;29.40;23.65;;;11.30;99.40;;;;;;5024785;28;20227;-79
2022/04/30 08:35:02;;;;;;;31.35;23.58;;;11.40;99.90;;;;;;5022893;28;20212;-79
2022/04/30 08:37:30;;;;;;;31.98;24.73;;;11.30;99.90;;;;;;5022538;28;20257;-77
2022/04/30 08:39:57;;;;;;;32.78;25.80;;;11.10;99.90;;;;;;5021304;28;20641;-77
2022/04/30 08:42:24;;;;;;;32.53;25.90;;;11.00;99.90;;;;;;5021040;28;20216;-82
2022/04/30 08:44:51;;;;;;;33.42;24.50;;;11.10;99.90;;;;;;5023436;28;20207;-76
2022/04/30 08:47:18;;;;;;;34.30;25.55;;;11.10;99.90;;;;;;5034251;28;20219;-76
2022/04/30 08:49:45;;;;;;;36.75;28.02;;;10.90;99.90;;;;;;5033415;28;20220;-78
2022/04/30 08:52:15;;;;;;;34.58;26.00;;;10.90;99.90;;;;;;5031169;28;20204;-77
2022/04/30 08:54:43;;;;;;;33.17;26.00;;;10.90;99.90;;;;;;5029809;28;20207;-77
2022/04/30 08:57:12;;;;;;;33.90;26.13;;;10.80;99.90;;;;;;5031959;28;20204;-76
2022/04/30 08:59:38;;;;;;;34.25;25.55;;;10.80;99.90;;;;;;5031862;28;20200;-79
2022/04/30 09:02:11;;;;;;;34.00;26.58;;;10.80;99.90;;;;;;5030957;28;20295;-76
2022/04/30 09:04:44;;;;;;;33.45;26.58;;;10.80;99.90;;;;;;5031130;28;20234;-77
2022/04/30 09:07:16;;;;;;;30.88;24.70;;;10.80;99.90;;;;;;5028412;28;20262;-76
2022/04/30 09:09:44;;;;;;;31.48;22.90;;;10.80;99.90;;;;;;5019129;28;20287;-76
2022/04/30 09:12:13;;;;;;;30.30;25.75;;;10.80;99.90;;;;;;5017282;28;20204;-77
2022/04/30 09:14:41;;;;;;;31.92;25.77;;;10.80;99.90;;;;;;5017442;28;20234;-78
2022/04/30 09:17:10;;;;;;;29.83;24.25;;;10.80;99.90;;;;;;5021242;28;20211;-78
2022/04/30 09:19:54;;;;;;;29.67;23.20;;;10.80;99.90;;;;;;5022156;28;20405;-79
2022/04/30 09:22:29;;;;;;;29.67;24.65;;;10.90;99.90;;;;;;5020630;28;20230;-78
2022/04/30 09:24:59;;;;;;;33.28;25.00;;;11.00;99.90;;;;;;5019161;28;20221;-77
2022/04/30 09:27:26;;;;;;;33.00;26.55;;;11.00;99.90;;;;;;5020439;28;20204;-78
2022/04/30 09:29:53;;;;;;;33.35;26.13;;;10.90;99.90;;;;;;5004573;28;20226;-78
2022/04/30 09:32:21;;;;;;;33.13;25.23;;;10.90;99.70;;;;;;5002532;28;20209;-77
2022/04/30 09:37:43;;;;;;;29.02;24.10;;;11.20;99.90;;;;;;5022418;28;20641;-78
2022/04/30 09:40:24;;;;;;;31.67;25.05;;;11.30;99.90;;;;;;5021483;28;20211;-78
2022/04/30 09:42:51;;;;;;;35.40;24.05;;;11.20;98.50;;;;;;5021404;28;20239;-79
2022/04/30 09:45:27;;;;;;;29.42;23.95;;;11.40;97.70;;;;;;5026647;28;20279;-78
2022/04/30 09:47:55;;;;;;;25.65;21.77;;;11.50;98.60;;;;;;5026988;28;20246;-79
2022/04/30 09:55:56;;;;;;;28.38;21.77;;;12.00;91.10;;;;;;5034066;28;20207;-77
2022/04/30 09:58:25;;;;;;;24.73;20.95;;;12.10;89.10;;;;;;5029989;28;20196;-77
2022/04/30 10:00:56;;;;;;;22.55;19.73;;;12.20;90.90;;;;;;5030826;28;20231;-77
2022/04/30 10:03:27;;;;;;;24.17;20.65;;;12.40;88.70;;;;;;5036926;28;20234;-77
2022/04/30 10:06:03;;;;;;;24.02;20.80;;;12.40;82.70;;;;;;5035563;28;20227;-78
2022/04/30 10:08:33;;;;;;;25.20;21.50;;;12.20;84.40;;;;;;5037399;28;20231;-77
2022/04/30 10:11:27;;;;;;;24.63;20.85;;;12.00;90.10;;;;;;5037090;28;20272;-78
2022/04/30 10:14:06;;;;;;;24.95;21.77;;;12.00;90.90;;;;;;5036388;28;20294;-77
2022/04/30 10:16:34;;;;;;;33.00;24.42;;;11.80;91.80;;;;;;5036633;28;20203;-77
2022/04/30 10:19:10;;;;;;;25.67;22.05;;;11.60;93.40;;;;;;5033571;28;20268;-77
2022/04/30 10:21:38;;;;;;;32.65;25.42;;;11.50;93.70;;;;;;5031944;28;20262;-78
2022/04/30 10:24:07;;;;;;;28.63;23.02;;;11.30;94.70;;;;;;5028854;28;20224;-77
2022/04/30 10:26:35;;;;;;;26.42;23.13;;;11.50;95.50;;;;;;5027396;28;20215;-77
2022/04/30 10:29:10;;;;;;;28.73;22.70;;;11.50;95.50;;;;;;5026467;28;20231;-76
2022/04/30 10:31:43;;;;;;;26.50;21.83;;;11.60;93.80;;;;;;5021961;28;20207;-77
2022/04/30 10:34:10;;;;;;;26.58;22.85;;;11.60;92.70;;;;;;5023455;28;20748;-77
2022/04/30 10:36:39;;;;;;;26.63;21.50;;;11.70;92.60;;;;;;5024391;28;20228;-76
2022/04/30 10:39:09;;;;;;;24.25;21.48;;;11.80;91.50;;;;;;5020067;28;20207;-77
2022/04/30 10:41:44;;;;;;;27.48;21.80;;;11.80;91.20;;;;;;5014418;28;20570;-77
2022/04/30 10:44:13;;;;;;;27.50;23.05;;;11.90;91.20;;;;;;5021681;28;20781;-77
2022/04/30 10:46:42;;;;;;;29.05;22.17;;;11.70;92.00;;;;;;5022904;28;20266;-77
2022/04/30 10:49:09;;;;;;;24.48;21.67;;;12.00;92.30;;;;;;5019084;28;20207;-78
2022/04/30 10:51:41;;;;;;;30.55;23.38;;;11.80;91.60;;;;;;5022072;28;20275;-77
2022/04/30 10:54:10;;;;;;;28.73;23.63;;;11.60;93.70;;;;;;5025306;28;20238;-78
2022/04/30 10:56:39;;;;;;;25.80;21.88;;;11.40;95.00;;;;;;5034437;28;20200;-77
2022/04/30 10:59:07;;;;;;;29.65;23.38;;;11.40;95.50;;;;;;5035569;28;20243;-78
2022/04/30 11:01:35;;;;;;;29.23;23.48;;;11.20;95.40;;;;;;5036181;28;20303;-77
2022/04/30 11:04:02;;;;;;;28.30;23.40;;;11.20;95.60;;;;;;5036499;28;20227;-78
2022/04/30 11:06:32;;;;;;;30.60;24.63;;;11.20;95.50;;;;;;5033562;28;20196;-78
2022/04/30 11:09:00;;;;;;;27.65;23.50;;;11.20;97.20;;;;;;5032887;28;20211;-79
2022/04/30 11:11:26;;;;;;;28.52;24.55;;;11.10;97.50;;;;;;5034744;28;20240;-77
2022/04/30 11:14:01;;;;;;;26.13;21.25;;;11.20;98.10;;;;;;5028966;28;20267;-77
2022/04/30 11:16:34;;;;;;;30.30;23.98;;;11.30;96.70;;;;;;5033477;28;20271;-77
2022/04/30 11:19:05;;;;;;;26.45;21.70;;;11.30;96.30;;;;;;5030472;28;20266;-76
2022/04/30 11:21:36;;;;;;;28.67;24.88;;;11.20;96.40;;;;;;5033102;28;20227;-78
2022/04/30 11:24:04;;;;;;;27.55;23.58;;;11.30;96.90;;;;;;5034979;28;20228;-77
2022/04/30 11:26:31;;;;;;;29.67;24.95;;;11.30;97.60;;;;;;5035085;28;20196;-77
2022/04/30 11:28:59;;;;;;;29.75;23.52;;;11.20;97.50;;;;;;5031239;28;20270;-77
2022/04/30 11:31:26;;;;;;;25.50;21.95;;;11.30;98.20;;;;;;5025287;28;20196;-78
2022/04/30 11:33:54;;;;;;;28.48;23.35;;;11.30;98.60;;;;;;5023587;28;20563;-77
2022/04/30 11:36:21;;;;;;;27.77;22.00;;;11.40;97.60;;;;;;5025588;28;20231;-76
2022/04/30 11:38:55;;;;;;;32.17;21.65;;;11.50;97.70;;;;;;5025582;28;20669;-78
2022/04/30 11:41:22;;;;;;;24.70;21.98;;;11.60;96.50;;;;;;5023719;28;20223;-76
2022/04/30 11:43:59;;;;;;;24.88;20.77;;;11.70;94.50;;;;;;5020062;28;20326;-76
2022/04/30 11:46:26;;;;;;;25.13;21.73;;;11.80;92.60;;;;;;5017905;28;20606;-79
2022/04/30 11:48:57;;;;;;;22.88;20.05;;;12.00;92.20;;;;;;5017211;28;20660;-75
2022/04/30 11:51:28;;;;;;;21.88;19.13;;;12.00;91.50;;;;;;5012300;28;20271;-77
2022/04/30 11:53:55;;;;;;;20.88;18.70;;;11.90;91.80;;;;;;5020413;28;20228;-74
2022/04/30 11:56:22;;;;;;;23.20;18.52;;;11.80;91.40;;;;;;5019873;28;20211;-77
2022/04/30 11:58:49;;;;;;;21.73;18.13;;;11.70;92.50;;;;;;5018110;28;20204;-77
2022/04/30 12:01:31;;;;;;;20.45;17.52;;;11.60;92.40;;;;;;5114439;27;20642;-77
2022/04/30 12:04:01;;;;;;;22.45;18.58;;;11.60;93.80;;;;;;5105069;28;20676;-76
2022/04/30 12:06:28;;;;;;;19.60;17.52;;;11.90;93.80;;;;;;5113094;28;20484;-77
2022/04/30 12:08:55;;;;;;;22.45;17.95;;;12.10;91.70;;;;;;5104960;28;20197;-78
2022/04/30 12:11:22;;;;;;;19.52;16.08;;;12.30;88.80;;;;;;5092732;28;20205;-76
2022/04/30 12:14:00;;;;;;;19.08;17.00;;;12.50;82.80;;;;;;5097293;22;20228;-76
2022/04/30 12:16:36;;;;;;;20.23;16.58;;;12.40;81.00;;;;;;5052652;28;20564;-80
2022/04/30 12:24:42;;;;;;;17.55;15.65;;;12.70;78.00;;;;;;5044970;28;20229;-77
2022/04/30 12:27:10;;;;;;;16.98;15.23;;;12.70;75.80;;;;;;5032798;28;20225;-77
2022/04/30 12:29:38;;;;;;;17.70;15.80;;;12.80;78.30;;;;;;5030507;28;20231;-78
2022/04/30 12:32:07;;;;;;;17.33;15.48;;;13.00;74.70;;;;;;5030618;28;20294;-78
2022/04/30 12:34:42;;;;;;;16.23;14.53;;;13.00;74.70;;;;;;5030825;28;20223;-77
2022/04/30 12:37:09;;;;;;;18.77;16.50;;;12.90;74.10;;;;;;5032977;28;20871;-78
2022/04/30 12:39:37;;;;;;;19.83;15.00;;;12.80;75.30;;;;;;5032841;28;20572;-78
2022/04/30 12:42:08;;;;;;;17.13;15.43;;;12.90;76.30;;;;;;5043417;28;20211;-79
2022/04/30 12:44:35;;;;;;;19.80;16.20;;;12.90;74.40;;;;;;5045490;28;20546;-78
2022/04/30 12:47:02;;;;;;;15.10;13.43;;;12.60;77.50;;;;;;5047170;28;20243;-77
2022/04/30 12:49:30;;;;;;;18.35;15.40;;;12.60;75.20;;;;;;5043167;28;20207;-78
2022/04/30 12:51:57;;;;;;;16.23;14.52;;;12.70;75.60;;;;;;5033360;28;20202;-79
2022/04/30 12:54:24;;;;;;;18.30;15.15;;;12.70;75.30;;;;;;5031874;28;20231;-78
2022/04/30 12:56:51;;;;;;;18.27;16.30;;;12.60;74.40;;;;;;5036272;28;20200;-78
2022/04/30 12:59:18;;;;;;;20.00;17.25;;;12.30;77.60;;;;;;5030691;28;20294;-78
2022/04/30 13:01:45;;;;;;;19.63;17.52;;;12.30;77.10;;;;;;5031200;28;20287;-76
2022/04/30 13:04:12;;;;;;;17.17;15.50;;;12.10;78.20;;;;;;5031038;28;20232;-78
2022/04/30 13:06:41;;;;;;;18.30;16.15;;;12.10;78.20;;;;;;5033904;28;20671;-82
2022/04/30 13:14:37;;;;;;;19.95;15.77;;;11.60;82.00;;;;;;5018363;28;20239;-74
2022/04/30 13:17:04;;;;;;;18.38;15.20;;;11.70;82.40;;;;;;5016646;28;20204;-74
2022/04/30 13:19:32;;;;;;;17.05;15.25;;;11.90;83.80;;;;;;5016075;28;20274;-74
2022/04/30 13:22:01;;;;;;;16.30;14.70;;;12.10;80.70;;;;;;5015800;28;20250;-74
2022/04/30 13:24:29;;;;;;;22.85;14.65;;;12.40;78.50;;;;;;5016102;28;20274;-74